Time;durP1;ratioP1;P1;durP2;ratioP2;P2;SDS_P1;SDS_P2;PMS_P1;PMS_P2;Temp;Humidity;BMP_temperature;BMP_pressure;BME280_temperature;BME280_humidity;BME280_pressure;Samples;Min_cycle;Max_cycle;Signal;HPM_P1;HPM_P2
2022/11/13 00:00:33;;;;;;;9.27;8.57;;;;;;;;;;4989383;28;20443;-70
2022/11/13 00:02:58;;;;;;;8.13;7.55;;;;;;;;;;4992142;28;20528;-70
2022/11/13 00:05:24;;;;;;;8.90;8.25;;;;;;;;;;4990701;28;20037;-70
2022/11/13 00:07:49;;;;;;;9.70;9.00;;;;;;;;;;4993114;28;20460;-70
2022/11/13 00:10:15;;;;;;;9.55;8.88;;;;;;;;;;4988303;28;20188;-69
2022/11/13 00:12:40;;;;;;;8.75;8.15;;;;;;;;;;4987308;28;20507;-69
2022/11/13 00:15:06;;;;;;;8.43;7.88;;;;;;;;;;4989686;28;20046;-70
2022/11/13 00:17:31;;;;;;;8.20;7.60;;;;;;;;;;4989690;28;20111;-69
2022/11/13 00:19:56;;;;;;;8.40;7.88;;;;;;;;;;4991047;28;20483;-69
2022/11/13 00:22:22;;;;;;;8.55;7.95;;;;;;;;;;4972938;28;20447;-70
2022/11/13 00:24:47;;;;;;;8.65;8.05;;;;;;;;;;4995510;28;20038;-69
2022/11/13 00:27:13;;;;;;;9.80;9.07;;;;;;;;;;4993423;28;20029;-70
2022/11/13 00:29:39;;;;;;;9.13;8.52;;;;;;;;;;4993842;28;20030;-70
2022/11/13 00:32:04;;;;;;;9.82;8.98;;;;;;;;;;4993151;28;20041;-70
2022/11/13 00:34:30;;;;;;;8.60;8.00;;;;;;;;;;4992209;28;20038;-69
2022/11/13 00:36:55;;;;;;;8.60;8.00;;;;;;;;;;4995308;28;20037;-69
2022/11/13 00:39:20;;;;;;;9.07;8.38;;;;;;;;;;4995968;28;20021;-69
2022/11/13 00:41:46;;;;;;;8.60;8.00;;;;;;;;;;4992408;28;20037;-69
2022/11/13 00:44:11;;;;;;;8.68;8.07;;;;;;;;;;4994187;28;20030;-69
2022/11/13 00:46:37;;;;;;;9.15;8.55;;;;;;;;;;4996813;28;20072;-69
2022/11/13 00:49:02;;;;;;;8.63;8.02;;;;;;;;;;4995314;28;20034;-69
2022/11/13 00:51:28;;;;;;;9.85;9.15;;;;;;;;;;4994564;28;20037;-69
2022/11/13 00:53:53;;;;;;;9.07;8.48;;;;;;;;;;4993642;28;20144;-69
2022/11/13 00:56:19;;;;;;;8.25;7.65;;;;;;;;;;4993788;28;20319;-70
2022/11/13 00:58:44;;;;;;;8.88;8.18;;;;;;;;;;4994899;28;20111;-70
2022/11/13 01:01:12;;;;;;;8.88;8.23;;;;;;;;;;4991076;28;20649;-69
2022/11/13 01:03:38;;;;;;;9.25;8.57;;;;;;;;;;4993196;28;20397;-69
2022/11/13 01:06:20;;;;;;;7.80;7.28;;;;;;;;;;4995712;28;20033;-69
2022/11/13 01:08:46;;;;;;;8.18;7.57;;;;;;;;;;4992572;28;20416;-68
2022/11/13 01:11:16;;;;;;;8.00;7.50;;;;;;;;;;4991345;28;20037;-69
2022/11/13 01:13:44;;;;;;;8.35;7.78;;;;;;;;;;4996154;28;20081;-69
2022/11/13 01:16:11;;;;;;;8.90;8.30;;;;;;;;;;4993473;28;20113;-69
2022/11/13 01:18:37;;;;;;;8.90;8.25;;;;;;;;;;4992467;28;20031;-69
2022/11/13 01:21:11;;;;;;;9.38;8.77;;;;;;;;;;4991393;28;20051;-69
2022/11/13 01:23:37;;;;;;;10.05;9.25;;;;;;;;;;4991892;28;20147;-69
2022/11/13 01:26:14;;;;;;;9.07;8.48;;;;;;;;;;4994991;28;20113;-69
2022/11/13 01:28:42;;;;;;;9.05;8.35;;;;;;;;;;4988967;28;20038;-69
2022/11/13 01:31:14;;;;;;;9.70;9.02;;;;;;;;;;4994535;28;20475;-69
2022/11/13 01:33:39;;;;;;;8.73;8.13;;;;;;;;;;4995719;28;20092;-69
2022/11/13 01:36:12;;;;;;;9.35;8.75;;;;;;;;;;4992970;28;20038;-69
2022/11/13 01:38:37;;;;;;;8.82;8.23;;;;;;;;;;4992472;28;20038;-69
2022/11/13 01:41:03;;;;;;;9.40;8.80;;;;;;;;;;4992123;28;20037;-69
2022/11/13 01:43:32;;;;;;;9.05;8.45;;;;;;;;;;4992833;28;20042;-69
2022/11/13 01:45:57;;;;;;;10.43;9.80;;;;;;;;;;4993323;28;20030;-69
2022/11/13 01:48:32;;;;;;;9.57;8.93;;;;;;;;;;4990458;28;20026;-70
2022/11/13 01:50:58;;;;;;;9.10;8.35;;;;;;;;;;4994911;28;20030;-69
2022/11/13 01:53:24;;;;;;;8.93;8.32;;;;;;;;;;4989987;28;20452;-68
2022/11/13 01:55:50;;;;;;;9.45;8.85;;;;;;;;;;4993293;28;20041;-70
2022/11/13 01:58:15;;;;;;;9.27;8.68;;;;;;;;;;4994014;28;20038;-69
2022/11/13 02:00:41;;;;;;;9.00;8.40;;;;;;;;;;4991174;28;20409;-69
2022/11/13 02:03:06;;;;;;;8.55;8.00;;;;;;;;;;4993758;28;20084;-69
2022/11/13 02:05:31;;;;;;;9.02;8.43;;;;;;;;;;4991103;28;20211;-69
2022/11/13 02:07:57;;;;;;;9.07;8.38;;;;;;;;;;4993868;28;20045;-69
2022/11/13 02:10:22;;;;;;;9.38;8.77;;;;;;;;;;4992163;28;20113;-69
2022/11/13 02:12:50;;;;;;;8.85;8.25;;;;;;;;;;4994231;28;20030;-70
2022/11/13 02:15:19;;;;;;;8.38;7.82;;;;;;;;;;5006925;28;20049;-69
2022/11/13 02:17:48;;;;;;;9.25;8.65;;;;;;;;;;4990776;28;20031;-69
2022/11/13 02:20:14;;;;;;;8.50;7.90;;;;;;;;;;4992533;28;20132;-69
2022/11/13 02:22:58;;;;;;;8.23;7.68;;;;;;;;;;4994635;28;20061;-69
2022/11/13 02:25:26;;;;;;;8.25;7.72;;;;;;;;;;4994327;28;20129;-69
2022/11/13 02:27:51;;;;;;;7.72;7.22;;;;;;;;;;4994158;28;20026;-69
2022/11/13 02:30:20;;;;;;;8.68;8.07;;;;;;;;;;4991549;28;20038;-69
2022/11/13 02:32:48;;;;;;;8.85;8.25;;;;;;;;;;4992175;28;20329;-68
2022/11/13 02:35:36;;;;;;;7.82;7.32;;;;;;;;;;4992575;28;20765;-69
2022/11/13 02:38:04;;;;;;;8.02;7.53;;;;;;;;;;4991799;28;20165;-68
2022/11/13 02:40:30;;;;;;;7.38;6.88;;;;;;;;;;4990434;28;20075;-68
2022/11/13 02:42:55;;;;;;;7.82;7.25;;;;;;;;;;4998246;28;20018;-69
2022/11/13 02:45:21;;;;;;;7.80;7.30;;;;;;;;;;4988670;28;20080;-69
2022/11/13 02:47:46;;;;;;;7.38;6.88;;;;;;;;;;4989489;28;20473;-69
2022/11/13 02:50:12;;;;;;;7.72;7.22;;;;;;;;;;4989991;28;20034;-69
2022/11/13 02:52:38;;;;;;;7.88;7.38;;;;;;;;;;4987710;28;20042;-69
2022/11/13 02:55:04;;;;;;;8.48;7.88;;;;;;;;;;4993601;28;20034;-69
2022/11/13 02:57:30;;;;;;;8.30;7.75;;;;;;;;;;4995048;28;20033;-70
2022/11/13 02:59:55;;;;;;;8.00;7.40;;;;;;;;;;4992144;28;20034;-70
2022/11/13 03:02:20;;;;;;;8.52;7.93;;;;;;;;;;4988751;28;20108;-70
2022/11/13 03:04:46;;;;;;;7.32;6.82;;;;;;;;;;4991539;28;20030;-70
2022/11/13 03:07:12;;;;;;;7.40;6.90;;;;;;;;;;4992765;28;20084;-70
2022/11/13 03:09:41;;;;;;;9.30;8.57;;;;;;;;;;4995628;28;20042;-70
2022/11/13 03:12:07;;;;;;;7.78;7.28;;;;;;;;;;4990890;28;20178;-70
2022/11/13 03:14:33;;;;;;;8.10;7.57;;;;;;;;;;4989543;28;20119;-70
2022/11/13 03:16:58;;;;;;;7.97;7.43;;;;;;;;;;4993107;28;20471;-70
2022/11/13 03:19:24;;;;;;;8.55;7.95;;;;;;;;;;4993183;28;20129;-70
2022/11/13 03:21:49;;;;;;;7.45;6.90;;;;;;;;;;4990884;28;20057;-70
2022/11/13 03:24:14;;;;;;;8.73;8.10;;;;;;;;;;4987921;28;20112;-69
2022/11/13 03:26:40;;;;;;;7.47;6.90;;;;;;;;;;4993249;28;20029;-69
2022/11/13 03:29:05;;;;;;;7.95;7.45;;;;;;;;;;4990530;28;20092;-70
2022/11/13 03:31:31;;;;;;;7.97;7.38;;;;;;;;;;4992503;28;20076;-69
2022/11/13 03:33:56;;;;;;;7.78;7.28;;;;;;;;;;4992396;28;20490;-70
2022/11/13 03:36:21;;;;;;;7.30;6.80;;;;;;;;;;4992741;28;20483;-70
2022/11/13 03:38:47;;;;;;;8.07;7.47;;;;;;;;;;4991181;28;20300;-70
2022/11/13 03:41:15;;;;;;;7.30;6.80;;;;;;;;;;4989682;28;20123;-70
2022/11/13 03:43:41;;;;;;;6.85;6.35;;;;;;;;;;4992281;28;20054;-70
2022/11/13 03:46:07;;;;;;;7.85;7.35;;;;;;;;;;4991973;28;20471;-71
2022/11/13 03:48:33;;;;;;;7.70;7.20;;;;;;;;;;4990464;28;20107;-70
2022/11/13 03:50:59;;;;;;;8.60;8.00;;;;;;;;;;4993677;28;20026;-70
2022/11/13 03:53:24;;;;;;;7.82;7.25;;;;;;;;;;4988947;28;20041;-69
2022/11/13 03:55:50;;;;;;;7.35;6.85;;;;;;;;;;4989327;28;20120;-70
2022/11/13 03:58:16;;;;;;;7.60;7.10;;;;;;;;;;4991216;28;20427;-70
2022/11/13 04:00:43;;;;;;;7.00;6.50;;;;;;;;;;4990178;28;20069;-70
2022/11/13 04:03:08;;;;;;;7.32;6.82;;;;;;;;;;4988805;28;20374;-69
2022/11/13 04:05:33;;;;;;;8.07;7.57;;;;;;;;;;4990439;28;20483;-70
2022/11/13 04:07:59;;;;;;;7.28;6.78;;;;;;;;;;4990511;28;20435;-70
2022/11/13 04:10:25;;;;;;;8.27;7.68;;;;;;;;;;4986731;28;20035;-70
2022/11/13 04:12:50;;;;;;;8.63;8.02;;;;;;;;;;4986680;28;20027;-70
2022/11/13 04:15:16;;;;;;;7.75;7.18;;;;;;;;;;4991393;28;20045;-70
2022/11/13 04:17:41;;;;;;;7.35;6.85;;;;;;;;;;4995114;28;20033;-70
2022/11/13 04:20:08;;;;;;;8.07;7.57;;;;;;;;;;4992451;28;20031;-70
2022/11/13 04:22:33;;;;;;;8.45;7.88;;;;;;;;;;4990882;28;20029;-70
2022/11/13 04:24:59;;;;;;;7.80;7.30;;;;;;;;;;4996305;28;20027;-70
2022/11/13 04:27:24;;;;;;;8.77;8.18;;;;;;;;;;4990711;28;20443;-70
2022/11/13 04:29:49;;;;;;;8.38;7.88;;;;;;;;;;4991222;28;20445;-70
2022/11/13 04:32:15;;;;;;;9.00;8.40;;;;;;;;;;4990256;28;20034;-70
2022/11/13 04:34:40;;;;;;;8.23;7.63;;;;;;;;;;4989925;28;20034;-71
2022/11/13 04:37:06;;;;;;;8.70;8.10;;;;;;;;;;4990970;28;20354;-71
2022/11/13 04:39:31;;;;;;;8.38;7.78;;;;;;;;;;4989022;28;20038;-70
2022/11/13 04:44:41;;;;;;;9.20;8.60;;;;;;;;;;4989857;28;20092;-70
2022/11/13 04:47:07;;;;;;;8.75;8.15;;;;;;;;;;4992872;28;20026;-70
2022/11/13 04:49:32;;;;;;;8.45;7.88;;;;;;;;;;4989805;28;20022;-70
2022/11/13 04:51:58;;;;;;;7.72;7.22;;;;;;;;;;4986871;28;20251;-70
2022/11/13 04:54:23;;;;;;;8.50;7.90;;;;;;;;;;4993122;28;20026;-70
2022/11/13 04:56:48;;;;;;;8.05;7.55;;;;;;;;;;4991649;28;20309;-70
2022/11/13 04:59:14;;;;;;;8.23;7.63;;;;;;;;;;4989639;28;20554;-70
2022/11/13 05:01:39;;;;;;;8.50;7.90;;;;;;;;;;4992893;28;20062;-70
2022/11/13 05:04:05;;;;;;;8.40;7.80;;;;;;;;;;4995137;28;20022;-70
2022/11/13 05:06:30;;;;;;;8.07;7.55;;;;;;;;;;4991270;28;20057;-70
2022/11/13 05:08:55;;;;;;;8.27;7.68;;;;;;;;;;4989567;28;20488;-70
2022/11/13 05:11:21;;;;;;;8.10;7.60;;;;;;;;;;4993523;28;20518;-70
2022/11/13 05:13:46;;;;;;;8.30;7.70;;;;;;;;;;4995425;28;20045;-71
2022/11/13 05:16:13;;;;;;;8.85;8.25;;;;;;;;;;4993043;28;20022;-70
2022/11/13 05:18:39;;;;;;;7.22;6.72;;;;;;;;;;4993807;28;20062;-70
2022/11/13 05:21:06;;;;;;;8.45;7.85;;;;;;;;;;4992387;28;20121;-70
2022/11/13 05:23:32;;;;;;;7.72;7.22;;;;;;;;;;4994793;28;20048;-71
2022/11/13 05:26:06;;;;;;;7.32;6.82;;;;;;;;;;4994585;28;20042;-70
2022/11/13 05:28:32;;;;;;;7.57;7.07;;;;;;;;;;4995299;28;20030;-70
2022/11/13 05:31:13;;;;;;;7.28;6.78;;;;;;;;;;4993500;28;20145;-71
2022/11/13 05:33:39;;;;;;;7.63;7.13;;;;;;;;;;4993686;28;20046;-69
2022/11/13 05:36:10;;;;;;;7.32;6.82;;;;;;;;;;4995623;28;20040;-69
2022/11/13 05:38:36;;;;;;;8.10;7.50;;;;;;;;;;4994034;28;20030;-69
2022/11/13 05:41:14;;;;;;;8.05;7.45;;;;;;;;;;4991792;28;20038;-69
2022/11/13 05:43:40;;;;;;;9.20;8.50;;;;;;;;;;4992941;28;20384;-70
2022/11/13 05:46:23;;;;;;;7.47;6.88;;;;;;;;;;4993495;28;20029;-70
2022/11/13 05:48:56;;;;;;;7.63;7.13;;;;;;;;;;4990401;28;20052;-70
2022/11/13 05:51:26;;;;;;;7.68;7.18;;;;;;;;;;4991241;28;20057;-70
2022/11/13 05:53:53;;;;;;;7.60;7.10;;;;;;;;;;4990858;28;20034;-69
2022/11/13 05:56:30;;;;;;;7.07;6.57;;;;;;;;;;4991461;28;20034;-70
2022/11/13 05:58:56;;;;;;;8.10;7.57;;;;;;;;;;4989949;28;20030;-70
2022/11/13 06:01:28;;;;;;;6.85;6.35;;;;;;;;;;4993585;28;20084;-69
2022/11/13 06:03:55;;;;;;;8.40;7.75;;;;;;;;;;4992809;28;20042;-71
2022/11/13 06:06:22;;;;;;;8.77;8.07;;;;;;;;;;4993775;28;20109;-70
2022/11/13 06:08:49;;;;;;;12.93;7.57;;;;;;;;;;4991326;28;20358;-71
2022/11/13 06:11:16;;;;;;;7.88;7.28;;;;;;;;;;4987694;28;20536;-72
2022/11/13 06:13:42;;;;;;;8.07;7.45;;;;;;;;;;4994432;28;20038;-70
2022/11/13 06:16:13;;;;;;;7.00;6.50;;;;;;;;;;4990498;28;20034;-72
2022/11/13 06:18:40;;;;;;;7.95;7.35;;;;;;;;;;4992403;28;20041;-72
2022/11/13 06:21:11;;;;;;;8.10;7.55;;;;;;;;;;4995694;28;20042;-72
2022/11/13 06:23:38;;;;;;;7.70;7.18;;;;;;;;;;4995546;28;20034;-69
2022/11/13 06:26:09;;;;;;;7.95;7.35;;;;;;;;;;4996295;28;20033;-69
2022/11/13 06:28:35;;;;;;;;;;;;;;;;;;4996663;28;20026;-71
2022/11/13 06:31:03;;;;;;;7.95;7.38;;;;;;;;;;4992022;28;19913;-71
2022/11/13 06:33:28;;;;;;;8.88;8.27;;;;;;;;;;4993021;28;20053;-70
2022/11/13 06:35:54;;;;;;;8.73;8.02;;;;;;;;;;4994837;28;20022;-71
2022/11/13 06:38:19;;;;;;;7.43;6.93;;;;;;;;;;4994528;28;20105;-70
2022/11/13 06:40:44;;;;;;;8.50;7.90;;;;;;;;;;4995382;28;20287;-70
2022/11/13 06:43:10;;;;;;;8.10;7.60;;;;;;;;;;4991576;28;20091;-73
2022/11/13 06:45:35;;;;;;;8.50;8.00;;;;;;;;;;4995299;28;20599;-69
2022/11/13 06:48:00;;;;;;;8.82;8.23;;;;;;;;;;4993944;28;20038;-71
2022/11/13 06:50:26;;;;;;;8.07;7.57;;;;;;;;;;4990843;28;20038;-71
2022/11/13 06:52:51;;;;;;;7.90;7.35;;;;;;;;;;4992123;28;20645;-68
2022/11/13 06:55:16;;;;;;;8.18;7.57;;;;;;;;;;4992656;28;20045;-68
2022/11/13 06:57:42;;;;;;;7.75;7.25;;;;;;;;;;4992066;28;20125;-69
2022/11/13 07:00:08;;;;;;;9.38;8.77;;;;;;;;;;4991413;28;20042;-68
2022/11/13 07:02:33;;;;;;;8.18;7.68;;;;;;;;;;4990985;28;20026;-68
2022/11/13 07:04:59;;;;;;;7.88;7.38;;;;;;;;;;4992932;28;20037;-68
2022/11/13 07:07:24;;;;;;;8.50;7.90;;;;;;;;;;4991063;28;20033;-69
2022/11/13 07:09:49;;;;;;;8.07;7.47;;;;;;;;;;4990368;28;20391;-69
2022/11/13 07:12:15;;;;;;;8.57;7.97;;;;;;;;;;4991975;28;20022;-69
2022/11/13 07:14:40;;;;;;;7.35;6.85;;;;;;;;;;4990664;28;20034;-68
2022/11/13 07:17:05;;;;;;;8.30;7.80;;;;;;;;;;4991937;28;20030;-65
2022/11/13 07:19:31;;;;;;;8.02;7.53;;;;;;;;;;4977614;28;20516;-72
2022/11/13 07:21:56;;;;;;;8.20;7.70;;;;;;;;;;4987013;28;20034;-72
2022/11/13 07:24:21;;;;;;;8.38;7.85;;;;;;;;;;4991108;28;20033;-72
2022/11/13 07:26:47;;;;;;;8.85;8.25;;;;;;;;;;4992044;28;20084;-69
2022/11/13 07:29:12;;;;;;;7.50;7.00;;;;;;;;;;4991522;28;20034;-72
2022/11/13 07:31:37;;;;;;;8.50;7.90;;;;;;;;;;4989517;28;20072;-70
2022/11/13 07:34:03;;;;;;;8.40;7.80;;;;;;;;;;4990887;28;20033;-71
2022/11/13 07:36:28;;;;;;;8.85;8.07;;;;;;;;;;4991864;28;20407;-70
2022/11/13 07:38:54;;;;;;;9.50;8.70;;;;;;;;;;4993160;28;20030;-70
2022/11/13 07:41:19;;;;;;;10.13;9.23;;;;;;;;;;4993291;28;20044;-71
2022/11/13 07:43:44;;;;;;;8.07;7.55;;;;;;;;;;4992071;28;20034;-75
2022/11/13 07:46:10;;;;;;;9.82;9.13;;;;;;;;;;4991095;28;20053;-72
2022/11/13 07:48:35;;;;;;;9.23;8.52;;;;;;;;;;4993924;28;20038;-69
2022/11/13 07:51:01;;;;;;;8.02;7.47;;;;;;;;;;4990482;28;20074;-70
2022/11/13 07:53:27;;;;;;;7.78;7.28;;;;;;;;;;4990450;28;20116;-68
2022/11/13 07:55:52;;;;;;;8.20;7.50;;;;;;;;;;4989646;28;20069;-67
2022/11/13 07:58:17;;;;;;;8.48;7.88;;;;;;;;;;4970626;28;20077;-58
2022/11/13 08:00:43;;;;;;;8.00;7.50;;;;;;;;;;4990603;28;20034;-57
2022/11/13 08:03:14;;;;;;;30.50;7.72;;;;;;;;;;4991627;28;20073;-58
2022/11/13 08:05:40;;;;;;;8.93;8.32;;;;;;;;;;4992318;28;20037;-57
2022/11/13 08:08:06;;;;;;;8.07;7.55;;;;;;;;;;4991099;28;20030;-57
2022/11/13 08:10:32;;;;;;;8.35;7.75;;;;;;;;;;4991627;28;20364;-58
2022/11/13 08:13:03;;;;;;;7.97;7.47;;;;;;;;;;4991214;28;20197;-58
2022/11/13 08:15:30;;;;;;;9.93;9.23;;;;;;;;;;4994280;28;20053;-58
2022/11/13 08:17:57;;;;;;;8.05;7.45;;;;;;;;;;4992765;28;20033;-58
2022/11/13 08:20:24;;;;;;;8.65;8.05;;;;;;;;;;4991980;28;20675;-58
2022/11/13 08:22:50;;;;;;;9.43;8.82;;;;;;;;;;4991038;28;20144;-58
2022/11/13 08:25:16;;;;;;;10.40;9.70;;;;;;;;;;4992729;28;20038;-58
2022/11/13 08:27:41;;;;;;;9.63;9.02;;;;;;;;;;4990578;28;20042;-58
2022/11/13 08:30:07;;;;;;;10.10;9.40;;;;;;;;;;4992067;28;20041;-58
2022/11/13 08:32:33;;;;;;;9.35;8.75;;;;;;;;;;4999600;28;20707;-59
2022/11/13 08:34:58;;;;;;;9.85;9.25;;;;;;;;;;4995898;28;20088;-58
2022/11/13 08:37:23;;;;;;;11.00;10.20;;;;;;;;;;4992080;28;20026;-58
2022/11/13 08:39:49;;;;;;;10.77;10.07;;;;;;;;;;4999393;28;20185;-58
2022/11/13 08:42:14;;;;;;;10.82;10.13;;;;;;;;;;4991014;28;20033;-58
2022/11/13 08:44:40;;;;;;;11.25;10.55;;;;;;;;;;4993987;28;20140;-58
2022/11/13 08:47:05;;;;;;;10.85;10.15;;;;;;;;;;4998441;28;20602;-59
2022/11/13 08:49:30;;;;;;;11.27;10.38;;;;;;;;;;4996542;28;20037;-58
2022/11/13 08:51:56;;;;;;;10.85;10.15;;;;;;;;;;5000362;28;20764;-58
2022/11/13 08:54:21;;;;;;;11.02;10.32;;;;;;;;;;4994175;28;20060;-58
2022/11/13 08:56:47;;;;;;;10.63;9.98;;;;;;;;;;4996405;28;20116;-58
2022/11/13 08:59:13;;;;;;;11.43;10.65;;;;;;;;;;4994574;28;20056;-58
2022/11/13 09:01:38;;;;;;;11.00;10.30;;;;;;;;;;4992537;28;20042;-58
2022/11/13 09:04:04;;;;;;;9.90;9.30;;;;;;;;;;4994094;28;20058;-58
2022/11/13 09:06:29;;;;;;;11.00;10.15;;;;;;;;;;4998372;28;20037;-58
2022/11/13 09:08:55;;;;;;;9.75;9.15;;;;;;;;;;4996094;28;20018;-58
2022/11/13 09:11:21;;;;;;;11.40;10.70;;;;;;;;;;4992822;28;20805;-58
2022/11/13 09:13:46;;;;;;;10.02;9.30;;;;;;;;;;4998357;28;20031;-58
2022/11/13 09:16:12;;;;;;;10.80;10.10;;;;;;;;;;4994844;28;20595;-58
2022/11/13 09:18:37;;;;;;;10.32;9.63;;;;;;;;;;4994280;28;20054;-58
2022/11/13 09:21:03;;;;;;;10.80;10.10;;;;;;;;;;4995504;28;20030;-69
2022/11/13 09:23:28;;;;;;;10.60;9.90;;;;;;;;;;4997194;28;20059;-69
2022/11/13 09:25:53;;;;;;;9.90;9.30;;;;;;;;;;4998620;28;20033;-58
2022/11/13 09:28:19;;;;;;;11.05;10.35;;;;;;;;;;4995427;28;20034;-58
2022/11/13 09:30:44;;;;;;;10.52;9.82;;;;;;;;;;4992794;28;20042;-57
2022/11/13 09:33:14;;;;;;;12.82;12.02;;;;;;;;;;4994647;28;20100;-57
2022/11/13 09:35:40;;;;;;;11.90;11.15;;;;;;;;;;4996600;28;20048;-57
2022/11/13 09:38:12;;;;;;;11.60;10.90;;;;;;;;;;4993021;28;20038;-57
2022/11/13 09:41:13;;;;;;;10.98;10.27;;;;;;;;;;4993607;28;20030;-58
2022/11/13 09:43:47;;;;;;;11.07;10.35;;;;;;;;;;4994239;28;20077;-58
2022/11/13 09:46:31;;;;;;;9.30;8.70;;;;;;;;;;4992352;28;20046;-58
2022/11/13 09:49:05;;;;;;;10.18;9.52;;;;;;;;;;4995592;28;20028;-58
2022/11/13 09:51:36;;;;;;;9.23;8.63;;;;;;;;;;4993508;28;20482;-58
2022/11/13 09:54:05;;;;;;;9.68;9.07;;;;;;;;;;4992984;28;20046;-58
2022/11/13 09:56:35;;;;;;;9.75;9.05;;;;;;;;;;4998203;28;20496;-58
2022/11/13 09:59:21;;;;;;;8.90;8.30;;;;;;;;;;4995166;28;20092;-58
2022/11/13 10:02:14;;;;;;;9.05;8.45;;;;;;;;;;4994907;28;20030;-58
2022/11/13 10:04:56;;;;;;;9.48;8.88;;;;;;;;;;4994036;28;20597;-58
2022/11/13 10:07:56;;;;;;;9.35;8.75;;;;;;;;;;4994137;28;20084;-58
2022/11/13 10:10:36;;;;;;;9.45;8.60;;;;;;;;;;4994859;28;20033;-58
2022/11/13 10:13:03;;;;;;;9.05;8.45;;;;;;;;;;4993552;28;20786;-58
2022/11/13 10:15:29;;;;;;;9.07;8.38;;;;;;;;;;4994464;28;20049;-58
2022/11/13 10:18:07;;;;;;;9.85;9.15;;;;;;;;;;4996403;28;20408;-58
2022/11/13 10:20:40;;;;;;;9.95;9.25;;;;;;;;;;5002024;28;20105;-57
2022/11/13 10:23:19;;;;;;;9.25;8.65;;;;;;;;;;4993251;28;20032;-58
2022/11/13 10:25:46;;;;;;;8.90;8.30;;;;;;;;;;4995446;28;20038;-58
2022/11/13 10:28:15;;;;;;;9.88;9.07;;;;;;;;;;4995589;28;20045;-58
2022/11/13 10:30:41;;;;;;;9.10;8.50;;;;;;;;;;4995224;28;20069;-58
2022/11/13 10:33:11;;;;;;;10.35;9.65;;;;;;;;;;4995391;28;20954;-58
2022/11/13 10:35:37;;;;;;;9.95;9.25;;;;;;;;;;4999003;28;20057;-58
2022/11/13 10:38:02;;;;;;;8.68;8.07;;;;;;;;;;4992517;28;20527;-58
2022/11/13 10:40:39;;;;;;;10.18;9.48;;;;;;;;;;4994784;28;20034;-58
2022/11/13 10:43:06;;;;;;;9.45;8.85;;;;;;;;;;4992567;28;20095;-57
2022/11/13 10:45:32;;;;;;;10.38;9.68;;;;;;;;;;4994973;28;20511;-58
2022/11/13 10:47:57;;;;;;;9.98;9.38;;;;;;;;;;5001503;28;20073;-57
2022/11/13 10:50:28;;;;;;;9.43;8.73;;;;;;;;;;4995000;28;20087;-57
2022/11/13 10:52:54;;;;;;;;;;;;;;;;;;4995537;28;20061;-58
2022/11/13 10:55:39;;;;;;;10.27;9.57;;;;;;;;;;4994583;28;19917;-57
2022/11/13 10:58:15;;;;;;;10.40;9.60;;;;;;;;;;4997230;28;20022;-57
2022/11/13 11:00:43;;;;;;;10.63;9.98;;;;;;;;;;4993718;28;20038;-57
2022/11/13 11:03:23;;;;;;;11.82;11.02;;;;;;;;;;4994091;28;20065;-58
2022/11/13 11:05:53;;;;;;;11.90;11.10;;;;;;;;;;4993880;28;20049;-58
2022/11/13 11:08:23;;;;;;;11.00;10.25;;;;;;;;;;4992504;28;20034;-59
2022/11/13 11:13:45;;;;;;;14.30;13.40;;;;;;;;;;4991684;28;20050;-58
2022/11/13 11:16:17;;;;;;;14.82;14.00;;;;;;;;;;4993374;28;20512;-58
2022/11/13 11:18:51;;;;;;;13.57;12.77;;;;;;;;;;4991463;28;20030;-58
2022/11/13 11:21:31;;;;;;;16.20;14.65;;;;;;;;;;4989302;28;22125;-58
2022/11/13 11:24:12;;;;;;;17.38;16.38;;;;;;;;;;4993310;28;20034;-58
2022/11/13 11:26:48;;;;;;;21.00;19.80;;;;;;;;;;4990516;28;20096;-58
2022/11/13 11:29:28;;;;;;;17.02;16.05;;;;;;;;;;4993361;28;20022;-58
2022/11/13 11:32:09;;;;;;;17.25;16.25;;;;;;;;;;4990338;28;20540;-58
2022/11/13 11:34:39;;;;;;;15.10;14.13;;;;;;;;;;4997118;28;20045;-58
2022/11/13 11:37:22;;;;;;;17.55;16.25;;;;;;;;;;4998369;28;20037;-58
2022/11/13 11:40:06;;;;;;;17.38;16.38;;;;;;;;;;4993319;28;20034;-58
2022/11/13 11:42:46;;;;;;;21.30;20.13;;;;;;;;;;4992080;28;20035;-59
2022/11/13 11:45:15;;;;;;;17.35;16.35;;;;;;;;;;4995163;28;20034;-58
2022/11/13 11:47:41;;;;;;;19.95;18.75;;;;;;;;;;4993733;28;20049;-60
2022/11/13 11:50:16;;;;;;;20.25;19.10;;;;;;;;;;4995553;28;20048;-59
2022/11/13 11:52:49;;;;;;;19.92;18.83;;;;;;;;;;4991345;28;20030;-59
2022/11/13 11:55:49;;;;;;;20.33;19.13;;;;;;;;;;4993315;28;20049;-59
2022/11/13 11:58:36;;;;;;;18.92;17.83;;;;;;;;;;4994688;28;20033;-58
2022/11/13 12:01:08;;;;;;;17.65;16.65;;;;;;;;;;4991160;28;20034;-57
2022/11/13 12:03:52;;;;;;;16.60;15.70;;;;;;;;;;4990411;28;20065;-58
2022/11/13 12:06:30;;;;;;;16.48;15.48;;;;;;;;;;4995296;28;20034;-59
2022/11/13 12:09:07;;;;;;;14.82;13.93;;;;;;;;;;4992176;28;20068;-59
2022/11/13 12:11:38;;;;;;;16.45;15.30;;;;;;;;;;4990685;28;20125;-59
2022/11/13 12:14:10;;;;;;;14.30;13.50;;;;;;;;;;4994599;28;20581;-59
2022/11/13 12:16:56;;;;;;;15.25;14.35;;;;;;;;;;4996123;28;20033;-59
2022/11/13 12:19:33;;;;;;;15.02;14.13;;;;;;;;;;4994702;28;20034;-59
2022/11/13 12:22:15;;;;;;;13.63;12.82;;;;;;;;;;4996847;28;20089;-59
2022/11/13 12:24:52;;;;;;;11.60;10.90;;;;;;;;;;4997885;28;20453;-58
2022/11/13 12:27:56;;;;;;;11.98;11.27;;;;;;;;;;4998102;28;20053;-58
2022/11/13 12:30:33;;;;;;;11.45;10.75;;;;;;;;;;4955957;28;20494;-59
2022/11/13 12:33:11;;;;;;;11.98;11.27;;;;;;;;;;4991623;28;20161;-59
2022/11/13 12:35:38;;;;;;;11.38;10.68;;;;;;;;;;4997903;28;20109;-57
2022/11/13 12:38:30;;;;;;;10.48;9.88;;;;;;;;;;4997456;28;20526;-58
2022/11/13 12:41:14;;;;;;;11.07;10.38;;;;;;;;;;4997312;28;20192;-60
2022/11/13 12:44:18;;;;;;;11.38;10.68;;;;;;;;;;4995780;28;20026;-60
2022/11/13 12:46:44;;;;;;;11.75;11.05;;;;;;;;;;4994635;28;20029;-59
2022/11/13 12:49:21;;;;;;;12.45;11.75;;;;;;;;;;4997246;28;20021;-59
2022/11/13 12:52:15;;;;;;;11.52;10.82;;;;;;;;;;4995811;28;20044;-59
2022/11/13 12:54:40;;;;;;;11.77;11.07;;;;;;;;;;4999333;28;20042;-60
2022/11/13 12:57:16;;;;;;;11.65;10.95;;;;;;;;;;4995787;28;20030;-59
2022/11/13 12:59:49;;;;;;;11.35;10.65;;;;;;;;;;4995593;28;20096;-60
2022/11/13 13:02:20;;;;;;;12.75;11.95;;;;;;;;;;4997605;28;20368;-59
2022/11/13 13:05:08;;;;;;;13.00;12.20;;;;;;;;;;4996809;28;20241;-59
2022/11/13 13:08:03;;;;;;;11.73;11.02;;;;;;;;;;4993886;28;20107;-58
2022/11/13 13:10:40;;;;;;;12.82;12.10;;;;;;;;;;4995111;28;20502;-58
2022/11/13 13:13:23;;;;;;;12.23;11.40;;;;;;;;;;4995774;28;20486;-58
2022/11/13 13:15:57;;;;;;;11.40;10.70;;;;;;;;;;4996409;28;20566;-58
2022/11/13 13:18:31;;;;;;;13.98;13.18;;;;;;;;;;4997345;28;20489;-58
2022/11/13 13:21:07;;;;;;;14.85;13.95;;;;;;;;;;4992826;28;20052;-58
2022/11/13 13:23:41;;;;;;;13.60;12.80;;;;;;;;;;4995028;28;20045;-59
2022/11/13 13:26:13;;;;;;;14.75;13.85;;;;;;;;;;4995710;28;20041;-58
2022/11/13 13:28:41;;;;;;;13.88;13.07;;;;;;;;;;4994701;28;20038;-57
2022/11/13 13:31:22;;;;;;;13.55;12.75;;;;;;;;;;4991912;28;20026;-57
2022/11/13 13:34:06;;;;;;;13.70;12.80;;;;;;;;;;4994239;28;20557;-58
2022/11/13 13:36:41;;;;;;;13.48;12.52;;;;;;;;;;4996914;28;20038;-58
2022/11/13 13:39:20;;;;;;;13.25;12.45;;;;;;;;;;4996299;28;20046;-58
2022/11/13 13:42:02;;;;;;;13.10;12.30;;;;;;;;;;4996333;28;20174;-59
2022/11/13 13:45:04;;;;;;;13.30;12.50;;;;;;;;;;4992987;28;20129;-58
2022/11/13 13:47:43;;;;;;;14.13;13.32;;;;;;;;;;4990614;28;20034;-58
2022/11/13 13:50:19;;;;;;;13.35;12.55;;;;;;;;;;4993413;28;20049;-57
2022/11/13 13:52:45;;;;;;;12.23;11.48;;;;;;;;;;4994672;28;20364;-58
2022/11/13 13:55:20;;;;;;;13.50;12.70;;;;;;;;;;4994226;28;20029;-58
2022/11/13 13:57:46;;;;;;;13.48;12.68;;;;;;;;;;4995556;28;20041;-58
2022/11/13 14:00:12;;;;;;;12.70;11.93;;;;;;;;;;4996116;28;20033;-58
2022/11/13 14:02:45;;;;;;;11.43;10.68;;;;;;;;;;4995260;28;20038;-58
2022/11/13 14:05:31;;;;;;;13.43;12.63;;;;;;;;;;4994354;28;20097;-58
2022/11/13 14:07:57;;;;;;;11.30;10.60;;;;;;;;;;4999323;28;20026;-58
2022/11/13 14:10:25;;;;;;;11.95;11.15;;;;;;;;;;4996550;28;20113;-59
2022/11/13 14:12:51;;;;;;;11.73;11.02;;;;;;;;;;4995854;28;20050;-58
2022/11/13 14:15:31;;;;;;;11.82;11.13;;;;;;;;;;4994264;28;20038;-58
2022/11/13 14:18:14;;;;;;;12.52;11.73;;;;;;;;;;4995097;28;20038;-58
2022/11/13 14:20:45;;;;;;;12.77;11.98;;;;;;;;;;4993900;28;20042;-58
2022/11/13 14:23:16;;;;;;;12.80;11.90;;;;;;;;;;4997360;28;20049;-58
2022/11/13 14:25:42;;;;;;;11.20;10.50;;;;;;;;;;4992463;28;20034;-58
2022/11/13 14:28:16;;;;;;;11.93;11.23;;;;;;;;;;4993269;28;20125;-58
2022/11/13 14:30:42;;;;;;;12.30;11.40;;;;;;;;;;4991423;28;20117;-58
2022/11/13 14:33:15;;;;;;;13.68;12.88;;;;;;;;;;4993036;28;20105;-58
2022/11/13 14:35:48;;;;;;;12.55;11.75;;;;;;;;;;4988757;28;20222;-58
2022/11/13 14:38:23;;;;;;;12.80;11.95;;;;;;;;;;4992197;28;20330;-58
2022/11/13 14:40:49;;;;;;;11.77;11.07;;;;;;;;;;4991423;28;20110;-58
2022/11/13 14:43:21;;;;;;;12.57;11.77;;;;;;;;;;4992778;28;20058;-58
2022/11/13 14:46:03;;;;;;;11.23;10.52;;;;;;;;;;4998319;28;20098;-58
2022/11/13 14:48:33;;;;;;;13.88;13.07;;;;;;;;;;4994180;28;20030;-57
2022/11/13 14:51:04;;;;;;;12.23;11.43;;;;;;;;;;4993200;28;20178;-58
2022/11/13 14:53:38;;;;;;;13.65;12.85;;;;;;;;;;4992923;28;20758;-58
2022/11/13 14:56:10;;;;;;;13.45;12.65;;;;;;;;;;4991757;28;20038;-58